createdAt,value
2022-12-15T00:02:21.464Z,4.40
2022-12-15T00:05:07.465Z,4.50
2022-12-15T00:07:53.274Z,4.50
2022-12-15T00:10:38.713Z,4.70
2022-12-15T00:13:31.798Z,5.20
2022-12-15T00:16:17.571Z,5.50
2022-12-15T00:19:03.010Z,5.20
2022-12-15T00:21:48.362Z,4.80
2022-12-15T00:24:34.121Z,4.50
2022-12-15T00:27:19.643Z,4.40
2022-12-15T00:30:05.031Z,4.30
2022-12-15T00:32:50.625Z,4.20
2022-12-15T00:35:35.895Z,4.30
2022-12-15T00:38:28.805Z,4.40
2022-12-15T00:40:59.559Z,4.40
2022-12-15T00:43:28.264Z,4.50
2022-12-15T00:46:14.181Z,4.60
2022-12-15T00:48:41.747Z,4.50
2022-12-15T00:51:08.481Z,4.80
2022-12-15T00:53:53.761Z,4.70
2022-12-15T00:56:39.199Z,4.60
2022-12-15T00:59:24.685Z,4.80
2022-12-15T01:02:10.110Z,4.90
2022-12-15T01:04:55.466Z,4.80
2022-12-15T01:07:41.207Z,4.60
2022-12-15T01:10:26.730Z,4.60
2022-12-15T01:13:12.401Z,4.50
2022-12-15T01:15:57.843Z,4.60
2022-12-15T01:18:43.715Z,4.50
2022-12-15T01:21:16.324Z,4.50
2022-12-15T01:23:42.984Z,4.50
2022-12-15T01:26:09.708Z,4.80
2022-12-15T01:28:36.687Z,5.40
2022-12-15T01:31:10.059Z,5.70
2022-12-15T01:33:36.751Z,5.80
2022-12-15T01:36:03.534Z,5.40
2022-12-15T01:38:30.204Z,5.30
2022-12-15T01:41:02.629Z,5.40
2022-12-15T01:43:32.123Z,5.60
2022-12-15T01:46:09.297Z,5.80
2022-12-15T01:48:40.234Z,5.60
2022-12-15T01:51:28.814Z,5.30
2022-12-15T01:54:18.396Z,4.90
2022-12-15T01:56:53.739Z,5.00
2022-12-15T01:59:27.029Z,5.00
2022-12-15T02:01:54.980Z,5.40
2022-12-15T02:04:23.471Z,5.30
2022-12-15T02:06:50.623Z,5.40
2022-12-15T02:09:18.394Z,5.40
2022-12-15T02:12:00.919Z,5.50
2022-12-15T02:14:44.603Z,5.40
2022-12-15T02:17:40.305Z,5.40
2022-12-15T02:20:23.881Z,5.20
2022-12-15T02:23:26.506Z,5.00
2022-12-15T02:26:37.980Z,5.30
2022-12-15T02:29:36.070Z,5.10
2022-12-15T02:32:20.120Z,5.00
2022-12-15T02:34:55.700Z,4.70
2022-12-15T02:37:40.907Z,4.70
2022-12-15T02:40:10.270Z,4.80
2022-12-15T02:42:43.741Z,4.80
2022-12-15T02:45:13.966Z,4.80
2022-12-15T02:48:11.861Z,4.70
2022-12-15T02:51:21.449Z,4.70
2022-12-15T02:54:04.227Z,4.70
2022-12-15T02:56:37.815Z,4.60
2022-12-15T02:59:13.464Z,4.60
2022-12-15T03:01:46.671Z,4.70
2022-12-15T03:04:13.891Z,4.60
2022-12-15T03:06:40.878Z,4.60
2022-12-15T03:09:07.556Z,4.80
2022-12-15T03:11:36.482Z,5.10
2022-12-15T03:14:03.460Z,5.30
2022-12-15T03:16:30.143Z,5.30
2022-12-15T03:18:57.932Z,5.20
2022-12-15T03:21:24.601Z,5.10
2022-12-15T03:23:51.271Z,5.10
2022-12-15T03:26:18.142Z,5.20
2022-12-15T03:28:45.204Z,5.20
2022-12-15T03:31:11.899Z,5.10
2022-12-15T03:33:38.795Z,5.30
2022-12-15T03:36:05.701Z,5.30
2022-12-15T03:38:32.377Z,5.30
2022-12-15T03:40:59.097Z,5.40
2022-12-15T03:43:25.745Z,5.40
2022-12-15T03:45:52.457Z,5.00
2022-12-15T03:48:19.204Z,5.10
2022-12-15T03:50:47.900Z,4.90
2022-12-15T03:53:14.514Z,4.80
2022-12-15T03:55:41.162Z,5.10
2022-12-15T03:58:07.900Z,5.30
2022-12-15T04:00:34.583Z,5.30
2022-12-15T04:03:01.539Z,5.40
2022-12-15T04:05:31.621Z,5.20
2022-12-15T04:08:41.983Z,5.30
2022-12-15T04:11:10.684Z,5.50
2022-12-15T04:13:37.427Z,5.60
2022-12-15T04:16:04.556Z,6.40
2022-12-15T04:18:31.338Z,6.80
2022-12-15T04:20:58.054Z,6.80
2022-12-15T04:23:24.751Z,6.80
2022-12-15T04:26:10.430Z,6.60
2022-12-15T04:28:55.884Z,6.40
2022-12-15T04:31:46.151Z,6.40
2022-12-15T04:34:35.203Z,6.30
2022-12-15T04:37:21.177Z,6.50
2022-12-15T04:40:09.232Z,6.70
2022-12-15T04:42:58.868Z,6.80
2022-12-15T04:45:44.462Z,6.50
2022-12-15T04:48:30.453Z,6.30
2022-12-15T04:51:15.885Z,6.30
2022-12-15T04:54:04.936Z,6.20
2022-12-15T04:56:51.141Z,6.40
2022-12-15T04:59:38.729Z,6.20
2022-12-15T05:02:24.051Z,6.30
2022-12-15T05:05:09.484Z,6.40
2022-12-15T05:07:55.070Z,6.50
2022-12-15T05:10:40.625Z,6.50
2022-12-15T05:13:27.336Z,6.70
2022-12-15T05:16:13.139Z,6.80
2022-12-15T05:18:58.382Z,6.60
2022-12-15T05:21:43.942Z,6.60
2022-12-15T05:24:30.231Z,6.50
2022-12-15T05:27:15.688Z,6.60
2022-12-15T05:30:01.342Z,6.30
2022-12-15T05:32:28.037Z,6.30
2022-12-15T05:34:54.668Z,6.00
2022-12-15T05:37:21.373Z,6.00
2022-12-15T05:39:48.052Z,6.00
2022-12-15T05:42:14.689Z,6.30
2022-12-15T05:44:41.439Z,6.20
2022-12-15T05:47:14.092Z,6.20
2022-12-15T05:49:52.204Z,6.20
2022-12-15T05:52:19.873Z,6.20
2022-12-15T05:54:46.535Z,6.00
2022-12-15T05:57:13.263Z,6.10
2022-12-15T05:59:40.005Z,6.10
2022-12-15T06:02:06.808Z,6.00
2022-12-15T06:04:33.629Z,6.00
2022-12-15T06:07:00.322Z,5.90
2022-12-15T06:09:27.126Z,5.90
2022-12-15T06:11:53.873Z,5.90
2022-12-15T06:14:20.526Z,6.30
2022-12-15T06:16:50.768Z,6.10
2022-12-15T06:19:19.167Z,6.20
2022-12-15T06:21:45.830Z,6.30
2022-12-15T06:24:12.493Z,6.20
2022-12-15T06:26:40.278Z,9.40
2022-12-15T06:29:09.225Z,10.80
2022-12-15T06:31:40.674Z,11.00
2022-12-15T06:34:11.710Z,10.70
2022-12-15T06:36:39.314Z,9.70
2022-12-15T06:39:09.670Z,9.30
2022-12-15T06:41:36.715Z,9.10
2022-12-15T06:44:04.296Z,8.70
2022-12-15T06:46:33.012Z,8.50
2022-12-15T06:48:59.745Z,8.30
2022-12-15T06:51:29.999Z,8.10
2022-12-15T06:53:56.867Z,8.00
2022-12-15T06:56:32.974Z,8.00
2022-12-15T06:59:01.776Z,7.90
2022-12-15T07:01:29.128Z,7.80
2022-12-15T07:03:57.020Z,5.90
2022-12-15T07:06:24.002Z,3.70
2022-12-15T07:08:53.780Z,3.00
2022-12-15T07:11:21.825Z,2.50
2022-12-15T07:13:52.785Z,1.70
2022-12-15T07:16:22.294Z,2.00
2022-12-15T07:18:49.237Z,3.80
2022-12-15T07:21:30.735Z,4.40
2022-12-15T07:24:17.617Z,4.60
2022-12-15T07:27:19.291Z,4.60
2022-12-15T07:29:51.092Z,4.60
2022-12-15T07:32:18.365Z,4.50
2022-12-15T07:34:55.361Z,4.60
2022-12-15T07:37:22.059Z,6.80
2022-12-15T07:39:51.500Z,7.50
2022-12-15T07:42:19.492Z,7.20
2022-12-15T07:44:46.540Z,7.20
2022-12-15T07:47:16.639Z,8.20
2022-12-15T07:49:43.346Z,7.30
2022-12-15T07:52:09.996Z,7.20
2022-12-15T07:54:38.758Z,6.70
2022-12-15T07:57:07.464Z,6.60
2022-12-15T07:59:34.742Z,6.90
2022-12-15T08:02:04.482Z,6.80
2022-12-15T08:04:32.375Z,6.80
2022-12-15T08:07:11.800Z,7.10
2022-12-15T08:09:38.428Z,6.80
2022-12-15T08:12:05.239Z,6.90
2022-12-15T08:14:33.328Z,6.80
2022-12-15T08:17:00.195Z,6.70
2022-12-15T08:19:27.116Z,6.70
2022-12-15T08:21:53.818Z,6.70
2022-12-15T08:24:21.479Z,6.90
2022-12-15T08:26:50.739Z,7.00
2022-12-15T08:29:49.579Z,7.30
2022-12-15T08:32:11.356Z,7.30
2022-12-15T08:34:38.930Z,7.20
2022-12-15T08:37:05.646Z,7.00
2022-12-15T08:39:32.395Z,6.90
2022-12-15T08:42:00.157Z,7.00
2022-12-15T08:44:26.846Z,7.30
2022-12-15T08:46:53.498Z,7.40
2022-12-15T08:49:22.489Z,7.40
2022-12-15T08:51:50.457Z,7.40
2022-12-15T08:54:19.140Z,7.20
2022-12-15T08:56:45.770Z,7.10
2022-12-15T08:59:12.623Z,7.20
2022-12-15T09:01:45.400Z,7.30
2022-12-15T09:04:12.268Z,7.50
2022-12-15T09:06:40.315Z,7.80
2022-12-15T09:09:10.638Z,7.70
2022-12-15T09:11:37.361Z,7.70
2022-12-15T09:14:04.475Z,7.50
2022-12-15T09:16:31.376Z,7.80
2022-12-15T09:18:59.748Z,7.80
2022-12-15T09:21:29.121Z,7.60
2022-12-15T09:24:00.537Z,7.50
2022-12-15T09:26:30.210Z,7.20
2022-12-15T09:29:14.956Z,7.20
2022-12-15T09:31:44.631Z,6.50
2022-12-15T09:34:14.946Z,6.60
2022-12-15T09:36:42.471Z,7.00
2022-12-15T09:39:11.925Z,7.00
2022-12-15T09:41:40.407Z,7.50
2022-12-15T09:44:17.842Z,7.20
2022-12-15T09:47:12.648Z,7.30
2022-12-15T09:49:58.084Z,7.20
2022-12-15T09:52:31.198Z,7.00
2022-12-15T09:54:59.239Z,7.10
2022-12-15T09:57:46.719Z,7.50
2022-12-15T10:00:22.118Z,7.60
2022-12-15T10:03:11.046Z,7.60
2022-12-15T10:06:21.506Z,7.70
2022-12-15T10:08:58.361Z,7.50
2022-12-15T10:11:50.724Z,7.10
2022-12-15T10:14:29.596Z,6.70
2022-12-15T10:17:21.944Z,6.80
2022-12-15T10:20:13.224Z,7.30
2022-12-15T10:22:40.408Z,7.20
2022-12-15T10:25:27.598Z,7.00
2022-12-15T10:28:03.372Z,7.10
2022-12-15T10:30:30.738Z,7.50
2022-12-15T10:33:14.935Z,7.50
2022-12-15T10:35:43.983Z,7.00
2022-12-15T10:38:38.511Z,6.00
2022-12-15T10:41:20.724Z,6.30
2022-12-15T10:43:50.440Z,6.50
2022-12-15T10:46:20.142Z,6.30
2022-12-15T10:49:00.085Z,6.40
2022-12-15T10:51:32.579Z,6.10
2022-12-15T10:54:03.315Z,5.50
2022-12-15T10:56:33.945Z,5.70
2022-12-15T10:59:06.491Z,5.30
2022-12-15T11:01:34.970Z,5.50
2022-12-15T11:04:01.808Z,5.40
2022-12-15T11:06:32.667Z,5.70
2022-12-15T11:09:16.559Z,5.90
2022-12-15T11:12:06.289Z,5.80
2022-12-15T11:14:46.564Z,5.90
2022-12-15T11:17:18.702Z,6.10
2022-12-15T11:20:17.918Z,5.70
2022-12-15T11:23:05.035Z,5.80
2022-12-15T11:25:37.625Z,5.20
2022-12-15T11:28:16.876Z,5.90
2022-12-15T11:30:49.331Z,6.60
2022-12-15T11:33:17.030Z,6.50
2022-12-15T11:35:53.940Z,6.50
2022-12-15T11:38:47.955Z,6.50
2022-12-15T11:41:41.753Z,6.20
2022-12-15T11:44:08.405Z,6.00
2022-12-15T11:46:45.658Z,7.00
2022-12-15T11:49:40.962Z,6.60
2022-12-15T11:52:43.113Z,6.50
2022-12-15T11:58:39.198Z,6.30
2022-12-15T12:01:21.971Z,6.40
2022-12-15T12:04:23.838Z,6.20
2022-12-15T12:07:04.195Z,6.10
2022-12-15T12:09:53.581Z,6.10
2022-12-15T12:12:33.883Z,5.90
2022-12-15T12:15:13.184Z,5.60
2022-12-15T12:18:21.816Z,5.50
2022-12-15T12:21:09.276Z,5.80
2022-12-15T12:23:39.694Z,6.20
2022-12-15T12:26:21.253Z,6.40
2022-12-15T12:29:21.086Z,6.40
2022-12-15T12:32:04.154Z,6.30
2022-12-15T12:34:40.158Z,6.00
2022-12-15T12:37:21.235Z,7.30
2022-12-15T12:39:49.478Z,7.00
2022-12-15T12:42:23.042Z,7.50
2022-12-15T12:44:49.903Z,6.60
2022-12-15T12:47:30.730Z,7.20
2022-12-15T12:50:14.507Z,8.30
2022-12-15T12:52:49.932Z,7.90
2022-12-15T12:55:35.797Z,7.60
2022-12-15T12:58:02.878Z,8.00
2022-12-15T13:00:32.289Z,7.50
2022-12-15T13:03:16.469Z,7.50
2022-12-15T13:05:45.677Z,8.10
2022-12-15T13:08:15.449Z,8.00
2022-12-15T13:10:44.461Z,7.30
2022-12-15T13:13:32.551Z,7.10
2022-12-15T13:16:24.270Z,7.80
2022-12-15T13:19:08.541Z,7.50
2022-12-15T13:21:44.365Z,7.30
2022-12-15T13:24:34.539Z,7.10
2022-12-15T13:27:10.090Z,7.50
2022-12-15T13:29:54.069Z,7.70
2022-12-15T13:32:39.956Z,7.60
2022-12-15T13:35:12.748Z,7.70
2022-12-15T13:37:56.680Z,8.40
2022-12-15T13:40:23.731Z,8.20
2022-12-15T13:42:58.849Z,8.10
2022-12-15T13:45:35.948Z,7.40
2022-12-15T13:48:37.795Z,7.20
2022-12-15T13:51:24.034Z,7.00
2022-12-15T13:53:58.945Z,7.20
2022-12-15T13:56:50.732Z,7.50
2022-12-15T13:59:38.505Z,7.30
2022-12-15T14:02:32.376Z,7.10
2022-12-15T14:05:14.800Z,7.00
2022-12-15T14:08:01.496Z,6.80
2022-12-15T14:10:36.924Z,6.70
2022-12-15T14:13:29.896Z,7.10
2022-12-15T14:16:04.683Z,6.90
2022-12-15T14:18:37.352Z,6.60
2022-12-15T14:21:19.617Z,6.20
2022-12-15T14:26:33.473Z,6.70
2022-12-15T14:29:07.336Z,7.20
2022-12-15T14:31:36.978Z,7.40
2022-12-15T14:34:10.807Z,7.10
2022-12-15T14:36:39.654Z,7.20
2022-12-15T14:39:15.446Z,7.70
2022-12-15T14:41:51.908Z,7.10
2022-12-15T14:44:49.969Z,6.70
2022-12-15T14:47:31.426Z,5.90
2022-12-15T14:50:02.289Z,5.20
2022-12-15T14:52:39.685Z,4.90
2022-12-15T14:55:32.826Z,4.60
2022-12-15T14:58:00.018Z,4.40
2022-12-15T15:00:34.350Z,4.80
2022-12-15T15:03:06.970Z,6.60
2022-12-15T15:06:06.290Z,5.50
2022-12-15T15:08:34.774Z,5.30
2022-12-15T15:11:24.078Z,4.70
2022-12-15T15:13:56.516Z,4.50
2022-12-15T15:17:09.756Z,4.60
2022-12-15T15:20:34.925Z,4.60
2022-12-15T15:23:21.999Z,4.40
2022-12-15T15:25:52.019Z,4.40
2022-12-15T15:28:39.993Z,4.70
2022-12-15T15:31:25.273Z,4.70
2022-12-15T15:33:52.766Z,4.30
2022-12-15T15:36:19.750Z,4.00
2022-12-15T15:38:52.153Z,3.80
2022-12-15T15:41:37.323Z,3.70
2022-12-15T15:44:12.221Z,3.50
2022-12-15T15:46:51.066Z,3.90
2022-12-15T15:49:21.894Z,3.90
2022-12-15T15:51:49.604Z,3.80
2022-12-15T15:54:19.096Z,3.70
2022-12-15T15:57:15.514Z,3.70
2022-12-15T15:59:44.153Z,3.80
2022-12-15T16:02:15.578Z,4.40
2022-12-15T16:04:47.944Z,4.60
2022-12-15T16:07:26.774Z,5.20
2022-12-15T16:09:59.560Z,5.50
2022-12-15T16:12:40.081Z,4.90
2022-12-15T16:15:13.605Z,4.40
2022-12-15T16:21:44.275Z,3.80
2022-12-15T16:24:29.885Z,3.90
2022-12-15T16:27:47.509Z,3.60
2022-12-15T16:30:26.915Z,3.60
2022-12-15T16:33:10.996Z,3.10
2022-12-15T16:39:33.733Z,4.10
2022-12-15T16:42:56.765Z,4.40
2022-12-15T16:45:42.103Z,5.60
2022-12-15T16:48:52.607Z,6.40
2022-12-15T16:51:52.289Z,6.90
2022-12-15T16:54:28.351Z,7.20
2022-12-15T16:56:56.867Z,7.40
2022-12-15T16:59:35.312Z,7.50
2022-12-15T17:02:20.254Z,7.40
2022-12-15T17:04:47.153Z,7.60
2022-12-15T17:07:19.703Z,7.80
2022-12-15T17:09:48.425Z,7.90
2022-12-15T17:12:17.978Z,7.70
2022-12-15T17:14:54.072Z,8.00
2022-12-15T17:17:21.246Z,7.90
2022-12-15T17:20:27.261Z,7.70
2022-12-15T17:22:39.054Z,7.80
2022-12-15T17:25:09.037Z,7.70
2022-12-15T17:27:36.707Z,7.60
2022-12-15T17:30:22.430Z,7.40
2022-12-15T17:32:50.162Z,7.80
2022-12-15T17:35:25.105Z,7.90
2022-12-15T17:37:51.771Z,8.00
2022-12-15T17:40:23.879Z,8.00
2022-12-15T17:42:54.520Z,7.70
2022-12-15T17:45:24.048Z,7.70
2022-12-15T17:47:52.173Z,7.70
2022-12-15T17:50:19.379Z,7.70
2022-12-15T17:52:48.462Z,8.30
2022-12-15T17:55:25.099Z,8.50
2022-12-15T17:57:55.807Z,8.70
2022-12-15T18:00:31.395Z,8.50
2022-12-15T18:03:00.310Z,9.00
2022-12-15T18:05:29.609Z,8.90
2022-12-15T18:07:59.583Z,8.80
2022-12-15T18:10:29.416Z,8.50
2022-12-15T18:12:56.614Z,8.40
2022-12-15T18:15:29.701Z,8.60
2022-12-15T18:17:57.451Z,8.40
2022-12-15T18:20:25.054Z,8.70
2022-12-15T18:22:52.561Z,8.70
2022-12-15T18:25:20.938Z,8.90
2022-12-15T18:27:48.013Z,8.70
2022-12-15T18:30:18.098Z,8.80
2022-12-15T18:32:46.808Z,9.00
2022-12-15T18:35:15.715Z,9.10
2022-12-15T18:37:42.527Z,9.20
2022-12-15T18:40:17.528Z,9.00
2022-12-15T18:42:46.153Z,8.60
2022-12-15T18:45:20.793Z,9.00
2022-12-15T18:47:49.851Z,8.70
2022-12-15T18:50:22.584Z,8.80
2022-12-15T18:52:59.294Z,8.90
2022-12-15T18:55:30.456Z,9.10
2022-12-15T18:57:58.794Z,9.10
2022-12-15T19:00:27.895Z,9.00
2022-12-15T19:02:57.606Z,9.30
2022-12-15T19:05:29.949Z,9.00
2022-12-15T19:08:13.182Z,9.20
2022-12-15T19:10:51.270Z,9.20
2022-12-15T19:13:21.045Z,9.60
2022-12-15T19:15:47.682Z,9.60
2022-12-15T19:18:38.297Z,9.00
2022-12-15T19:21:41.172Z,9.10
2022-12-15T19:24:11.986Z,9.70
2022-12-15T19:26:40.395Z,8.90
2022-12-15T19:29:17.193Z,8.60
2022-12-15T19:31:44.900Z,9.20
2022-12-15T19:34:11.769Z,8.70
2022-12-15T19:36:38.483Z,8.80
2022-12-15T19:39:07.092Z,8.80
2022-12-15T19:41:38.150Z,8.90
2022-12-15T19:44:14.589Z,9.30
2022-12-15T19:46:44.693Z,9.20
2022-12-15T19:49:11.467Z,8.60
2022-12-15T19:51:39.074Z,9.10
2022-12-15T19:54:06.147Z,9.70
2022-12-15T19:56:32.883Z,9.40
2022-12-15T19:58:59.716Z,9.30
2022-12-15T20:01:26.568Z,9.20
2022-12-15T20:03:53.391Z,9.20
2022-12-15T20:06:24.608Z,9.50
2022-12-15T20:08:54.811Z,9.50
2022-12-15T20:11:27.646Z,9.60
2022-12-15T20:13:54.604Z,9.20
2022-12-15T20:16:22.380Z,9.50
2022-12-15T20:18:54.844Z,9.50
2022-12-15T20:21:24.103Z,10.00
2022-12-15T20:23:57.559Z,9.50
2022-12-15T20:26:25.177Z,9.90
2022-12-15T20:28:53.074Z,9.50
2022-12-15T20:31:22.494Z,8.90
2022-12-15T20:33:49.576Z,9.00
2022-12-15T20:36:19.566Z,9.00
2022-12-15T20:38:47.035Z,9.30
2022-12-15T20:41:25.377Z,9.80
2022-12-15T20:43:54.629Z,9.20
2022-12-15T20:46:27.609Z,9.40
2022-12-15T20:48:55.441Z,9.60
2022-12-15T20:51:28.801Z,9.60
2022-12-15T20:53:58.279Z,9.50
2022-12-15T20:56:25.681Z,9.20
2022-12-15T20:58:54.278Z,9.20
2022-12-15T21:01:24.139Z,8.80
2022-12-15T21:03:53.741Z,8.80
2022-12-15T21:06:20.898Z,9.10
2022-12-15T21:08:47.585Z,8.60
2022-12-15T21:11:26.844Z,8.10
2022-12-15T21:13:56.389Z,8.70
2022-12-15T21:16:28.200Z,9.40
2022-12-15T21:19:19.296Z,9.60
2022-12-15T21:21:48.851Z,9.70
2022-12-15T21:24:22.987Z,9.10
2022-12-15T21:26:50.197Z,8.90
2022-12-15T21:29:20.257Z,8.90
2022-12-15T21:31:47.393Z,9.20
2022-12-15T21:34:14.311Z,9.30
2022-12-15T21:36:43.498Z,9.60
2022-12-15T21:39:18.651Z,9.10
2022-12-15T21:41:45.411Z,8.90
2022-12-15T21:44:15.633Z,8.30
2022-12-15T21:46:42.585Z,7.70
2022-12-15T21:49:18.465Z,7.70
2022-12-15T21:51:52.422Z,7.50
2022-12-15T21:54:30.378Z,7.60
2022-12-15T21:56:58.596Z,7.80
2022-12-15T21:59:27.847Z,7.80
2022-12-15T22:01:56.025Z,7.80
2022-12-15T22:04:30.408Z,7.70
2022-12-15T22:06:57.291Z,7.70
2022-12-15T22:09:24.069Z,7.80
2022-12-15T22:11:56.243Z,7.90
2022-12-15T22:14:32.394Z,7.90
2022-12-15T22:17:01.032Z,8.00
2022-12-15T22:19:28.259Z,8.30
2022-12-15T22:21:55.271Z,8.50
2022-12-15T22:24:22.024Z,8.30
2022-12-15T22:26:48.977Z,7.90
2022-12-15T22:29:21.197Z,7.80
2022-12-15T22:31:50.146Z,7.50
2022-12-15T22:34:22.052Z,7.40
2022-12-15T22:36:50.031Z,7.00
2022-12-15T22:39:18.771Z,7.00
2022-12-15T22:41:50.851Z,6.90
2022-12-15T22:44:32.144Z,7.10
2022-12-15T22:47:01.353Z,7.40
2022-12-15T22:49:35.523Z,7.30
2022-12-15T22:52:02.426Z,7.60
2022-12-15T22:54:32.051Z,7.40
2022-12-15T22:57:05.350Z,7.50
2022-12-15T22:59:42.407Z,7.40
2022-12-15T23:02:09.843Z,7.50
2022-12-15T23:04:36.686Z,7.60
2022-12-15T23:07:07.411Z,7.60
2022-12-15T23:09:34.101Z,7.70
2022-12-15T23:12:00.789Z,8.00
2022-12-15T23:14:46.050Z,7.80
2022-12-15T23:17:13.466Z,7.80
2022-12-15T23:19:46.810Z,7.60
2022-12-15T23:22:14.349Z,7.60
2022-12-15T23:24:41.151Z,7.50
2022-12-15T23:27:12.332Z,7.40
2022-12-15T23:29:39.309Z,7.40
2022-12-15T23:32:06.055Z,7.30
2022-12-15T23:34:34.726Z,7.70
2022-12-15T23:37:03.416Z,7.60
2022-12-15T23:39:30.089Z,7.30
2022-12-15T23:41:56.700Z,7.50
2022-12-15T23:44:23.335Z,7.30
2022-12-15T23:46:50.066Z,7.40
2022-12-15T23:49:17.164Z,7.50
2022-12-15T23:51:43.814Z,7.50
2022-12-15T23:54:10.501Z,7.30
2022-12-15T23:56:39.465Z,7.50
2022-12-15T23:59:06.397Z,7.20
